Terminal Aerodrome Forecast
Issued by NWS

Home | Current Version | Previous Version | Text Only | Print | Product List | Glossary On
Versions: 1 2 3 4 5 6 7 8 9 10 11 12 13 14 15 16 17 18 19 20 21 22 23 24 25
000
FTUS41 KOKX 281000 AAB
TAFGON
TAF AMD
KGON 281009Z 2810/2906 16010KT 2SM SHRA BR VCTS BKN005 OVC009CB
     FM281100 16010KT 6SM -SHRA OVC007
     FM281500 17010KT 6SM BR VCSH BKN015
     FM281700 18010KT 6SM HZ VCSH BKN040
     FM282000 21012KT P6SM SCT040
     FM290200 27012G19KT P6SM FEW020 SCT040=

USA.gov is the U.S. government's official web portal to all federal, state and local government web resources and services.